createdAt,value
2023-07-24T00:00:16.096Z,97860.00
2023-07-24T00:02:42.802Z,97858.00
2023-07-24T00:05:11.261Z,97850.00
2023-07-24T00:07:38.044Z,97852.00
2023-07-24T00:10:05.681Z,97838.00
2023-07-24T00:12:32.876Z,97838.00
2023-07-24T00:14:59.829Z,97839.00
2023-07-24T00:17:26.644Z,97846.00
2023-07-24T00:19:53.326Z,97839.00
2023-07-24T00:22:20.078Z,97840.00
2023-07-24T00:24:46.950Z,97850.00
2023-07-24T00:27:15.007Z,97847.00
2023-07-24T00:29:41.721Z,97848.00
2023-07-24T00:32:08.796Z,97837.00
2023-07-24T00:34:35.955Z,97823.00
2023-07-24T00:37:03.095Z,97832.00
2023-07-24T00:39:30.791Z,97843.00
2023-07-24T00:41:57.890Z,97833.00
2023-07-24T00:44:27.213Z,97827.00
2023-07-24T00:46:55.370Z,97829.00
2023-07-24T00:49:22.258Z,97829.00
2023-07-24T00:51:49.379Z,97828.00
2023-07-24T00:54:17.792Z,97818.00
2023-07-24T00:56:46.500Z,97822.00
2023-07-24T00:59:16.182Z,97816.00
2023-07-24T01:01:43.832Z,97817.00
2023-07-24T01:04:10.655Z,97813.00
2023-07-24T01:06:37.372Z,97823.00
2023-07-24T01:09:04.267Z,97828.00
2023-07-24T01:11:37.254Z,97829.00
2023-07-24T01:14:15.769Z,97825.00
2023-07-24T01:16:44.722Z,97797.00
2023-07-24T01:19:38.197Z,97729.00
2023-07-24T01:22:23.619Z,97688.00
2023-07-24T01:25:24.321Z,97697.00
2023-07-24T01:27:53.689Z,97696.00
2023-07-24T01:30:23.414Z,97728.00
2023-07-24T01:32:50.514Z,97753.00
2023-07-24T01:35:17.704Z,97767.00
2023-07-24T01:37:45.666Z,97771.00
2023-07-24T01:40:13.425Z,97771.00
2023-07-24T01:42:40.799Z,97770.00
2023-07-24T01:45:08.106Z,97776.00
2023-07-24T01:47:35.087Z,97784.00
2023-07-24T01:50:01.980Z,97779.00
2023-07-24T01:52:28.764Z,97778.00
2023-07-24T01:54:55.473Z,97777.00
2023-07-24T01:57:22.318Z,97775.00
2023-07-24T01:59:51.891Z,97770.00
2023-07-24T02:02:18.578Z,97771.00
2023-07-24T02:04:47.726Z,97770.00
2023-07-24T02:07:14.336Z,97754.00
2023-07-24T02:09:41.395Z,97754.00
2023-07-24T02:12:08.120Z,97751.00
2023-07-24T02:14:34.871Z,97746.00
2023-07-24T02:17:01.652Z,97753.00
2023-07-24T02:19:28.984Z,97728.00
2023-07-24T02:21:57.343Z,97724.00
2023-07-24T02:24:24.085Z,97724.00
2023-07-24T02:26:50.859Z,97740.00
2023-07-24T02:29:17.553Z,97733.00
2023-07-24T02:31:44.298Z,97737.00
2023-07-24T02:34:10.913Z,97734.00
2023-07-24T02:36:42.407Z,97734.00
2023-07-24T02:39:09.648Z,97737.00
2023-07-24T02:41:36.410Z,97742.00
2023-07-24T02:44:04.711Z,97738.00
2023-07-24T02:46:32.280Z,97737.00
2023-07-24T02:48:59.220Z,97723.00
2023-07-24T02:51:25.918Z,97713.00
2023-07-24T02:53:55.150Z,97704.00
2023-07-24T02:56:22.056Z,97695.00
2023-07-24T02:58:48.824Z,97693.00
2023-07-24T03:01:15.771Z,97693.00
2023-07-24T03:03:42.857Z,97670.00
2023-07-24T03:06:09.887Z,97659.00
2023-07-24T03:08:36.538Z,97670.00
2023-07-24T03:11:06.422Z,97674.00
2023-07-24T03:13:33.510Z,97653.00
2023-07-24T03:16:00.378Z,97640.00
2023-07-24T03:18:27.220Z,97636.00
2023-07-24T03:20:54.003Z,97634.00
2023-07-24T03:23:21.416Z,97637.00
2023-07-24T03:25:48.316Z,97641.00
2023-07-24T03:28:14.950Z,97642.00
2023-07-24T03:30:43.563Z,97638.00
2023-07-24T03:33:10.472Z,97628.00
2023-07-24T03:35:37.270Z,97628.00
2023-07-24T03:38:04.116Z,97621.00
2023-07-24T03:40:31.754Z,97617.00
2023-07-24T03:42:58.405Z,97631.00
2023-07-24T03:45:25.079Z,97628.00
2023-07-24T03:47:51.812Z,97625.00
2023-07-24T03:50:18.510Z,97635.00
2023-07-24T03:52:46.465Z,97653.00
2023-07-24T03:55:13.202Z,97657.00
2023-07-24T03:57:39.875Z,97652.00
2023-07-24T04:00:07.505Z,97664.00
2023-07-24T04:02:40.854Z,97655.00
2023-07-24T04:05:07.757Z,97657.00
2023-07-24T04:07:34.460Z,97646.00
2023-07-24T04:10:01.139Z,97651.00
2023-07-24T04:12:27.774Z,97662.00
2023-07-24T04:14:54.523Z,97657.00
2023-07-24T04:17:21.290Z,97657.00
2023-07-24T04:19:48.041Z,97642.00
2023-07-24T04:22:14.721Z,97652.00
2023-07-24T04:24:41.562Z,97654.00
2023-07-24T04:27:08.244Z,97657.00
2023-07-24T04:29:34.892Z,97653.00
2023-07-24T04:32:01.550Z,97668.00
2023-07-24T04:34:28.205Z,97659.00
2023-07-24T04:36:54.896Z,97666.00
2023-07-24T04:39:21.547Z,97678.00
2023-07-24T04:41:48.338Z,97677.00
2023-07-24T04:44:17.728Z,97671.00
2023-07-24T04:46:44.502Z,97655.00
2023-07-24T04:49:11.209Z,97638.00
2023-07-24T04:51:38.002Z,97635.00
2023-07-24T04:54:04.740Z,97637.00
2023-07-24T04:56:31.713Z,97636.00
2023-07-24T04:58:58.726Z,97646.00
2023-07-24T05:01:25.523Z,97634.00
2023-07-24T05:03:52.312Z,97646.00
2023-07-24T05:06:21.736Z,97654.00
2023-07-24T05:08:48.390Z,97654.00
2023-07-24T05:11:15.029Z,97656.00
2023-07-24T05:13:41.658Z,97654.00
2023-07-24T05:16:08.327Z,97666.00
2023-07-24T05:18:35.064Z,97648.00
2023-07-24T05:21:01.791Z,97645.00
2023-07-24T05:23:28.526Z,97646.00
2023-07-24T05:25:59.845Z,97633.00
2023-07-24T05:28:31.166Z,97641.00
2023-07-24T05:31:02.517Z,97656.00
2023-07-24T05:33:29.544Z,97653.00
2023-07-24T05:36:04.399Z,97650.00
2023-07-24T05:38:31.231Z,97649.00
2023-07-24T05:40:59.231Z,97652.00
2023-07-24T05:43:26.239Z,97648.00
2023-07-24T05:45:53.448Z,97655.00
2023-07-24T05:48:20.407Z,97658.00
2023-07-24T05:50:47.234Z,97651.00
2023-07-24T05:53:14.129Z,97651.00
2023-07-24T05:55:40.892Z,97654.00
2023-07-24T05:58:07.532Z,97648.00
2023-07-24T06:00:34.394Z,97651.00
2023-07-24T06:03:01.316Z,97656.00
2023-07-24T06:05:28.074Z,97642.00
2023-07-24T06:07:54.897Z,97651.00
2023-07-24T06:10:21.666Z,97630.00
2023-07-24T06:12:48.762Z,97637.00
2023-07-24T06:15:15.564Z,97638.00
2023-07-24T06:17:42.371Z,97646.00
2023-07-24T06:20:09.383Z,97637.00
2023-07-24T06:22:36.011Z,97643.00
2023-07-24T06:25:02.649Z,97645.00
2023-07-24T06:27:29.355Z,97656.00
2023-07-24T06:30:04.980Z,97656.00
2023-07-24T06:32:40.194Z,97651.00
2023-07-24T06:35:07.194Z,97658.00
2023-07-24T06:37:33.958Z,97662.00
2023-07-24T06:40:00.888Z,97659.00
2023-07-24T06:42:27.630Z,97674.00
2023-07-24T06:44:54.249Z,97668.00
2023-07-24T06:47:21.001Z,97655.00
2023-07-24T06:49:48.222Z,97659.00
2023-07-24T06:52:14.903Z,97653.00
2023-07-24T06:54:41.682Z,97652.00
2023-07-24T06:57:08.361Z,97658.00
2023-07-24T06:59:35.045Z,97655.00
2023-07-24T07:02:01.822Z,97650.00
2023-07-24T07:04:28.447Z,97658.00
2023-07-24T07:06:55.265Z,97655.00
2023-07-24T07:09:22.015Z,97655.00
2023-07-24T07:11:48.728Z,97661.00
2023-07-24T07:14:18.128Z,97661.00
2023-07-24T07:16:45.662Z,97647.00
2023-07-24T07:19:12.460Z,97658.00
2023-07-24T07:21:39.204Z,97659.00
2023-07-24T07:24:06.099Z,97667.00
2023-07-24T07:26:33.267Z,97674.00
2023-07-24T07:29:00.791Z,97675.00
2023-07-24T07:31:27.491Z,97681.00
2023-07-24T07:33:54.242Z,97670.00
2023-07-24T07:36:23.091Z,97674.00
2023-07-24T07:38:50.317Z,97670.00
2023-07-24T07:41:17.110Z,97660.00
2023-07-24T07:43:43.864Z,97654.00
2023-07-24T07:46:10.569Z,97653.00
2023-07-24T07:48:37.280Z,97656.00
2023-07-24T07:51:03.986Z,97649.00
2023-07-24T07:53:30.739Z,97647.00
2023-07-24T07:55:58.407Z,97646.00
2023-07-24T07:58:25.453Z,97634.00
2023-07-24T08:00:52.133Z,97635.00
2023-07-24T08:03:18.979Z,97633.00
2023-07-24T08:05:45.666Z,97637.00
2023-07-24T08:08:12.358Z,97651.00
2023-07-24T08:10:39.824Z,97648.00
2023-07-24T08:13:06.490Z,97661.00
2023-07-24T08:15:37.521Z,97667.00
2023-07-24T08:18:06.037Z,97666.00
2023-07-24T08:20:35.980Z,97655.00
2023-07-24T08:23:02.827Z,97674.00
2023-07-24T08:25:29.415Z,97662.00
2023-07-24T08:28:05.473Z,97663.00
2023-07-24T08:30:34.652Z,97648.00
2023-07-24T08:33:01.506Z,97619.00
2023-07-24T08:35:28.326Z,97626.00
2023-07-24T08:37:55.053Z,97622.00
2023-07-24T08:40:24.063Z,97622.00
2023-07-24T08:42:52.084Z,97602.00
2023-07-24T08:45:19.446Z,97603.00
2023-07-24T08:47:46.563Z,97588.00
2023-07-24T08:50:15.906Z,97584.00
2023-07-24T08:52:48.995Z,97581.00
2023-07-24T08:55:16.092Z,97585.00
2023-07-24T08:57:43.947Z,97579.00
2023-07-24T09:00:11.038Z,97600.00
2023-07-24T09:02:37.917Z,97598.00
2023-07-24T09:05:08.736Z,97593.00
2023-07-24T09:07:35.382Z,97577.00
2023-07-24T09:10:02.039Z,97567.00
2023-07-24T09:12:28.594Z,97563.00
2023-07-24T09:15:03.919Z,97556.00
2023-07-24T09:17:30.771Z,97538.00
2023-07-24T09:19:58.885Z,97539.00
2023-07-24T09:22:27.844Z,97544.00
2023-07-24T09:24:56.751Z,97530.00
2023-07-24T09:27:29.582Z,97522.00
2023-07-24T09:29:57.443Z,97527.00
2023-07-24T09:32:26.435Z,97548.00
2023-07-24T09:34:55.328Z,97553.00
2023-07-24T09:37:29.185Z,97569.00
2023-07-24T09:39:56.020Z,97569.00
2023-07-24T09:42:48.528Z,97570.00
2023-07-24T09:45:25.450Z,97571.00
2023-07-24T09:47:56.189Z,97568.00
2023-07-24T09:50:24.357Z,97571.00
2023-07-24T09:52:51.858Z,97567.00
2023-07-24T09:55:34.044Z,97570.00
2023-07-24T09:58:02.073Z,97580.00
2023-07-24T10:00:29.552Z,97588.00
2023-07-24T10:02:57.207Z,97593.00
2023-07-24T10:05:24.239Z,97585.00
2023-07-24T10:07:52.638Z,97599.00
2023-07-24T10:10:19.618Z,97600.00
2023-07-24T10:12:46.588Z,97589.00
2023-07-24T10:15:16.111Z,97593.00
2023-07-24T10:17:43.454Z,97592.00
2023-07-24T10:20:12.453Z,97593.00
2023-07-24T10:22:43.337Z,97603.00
2023-07-24T10:25:11.344Z,97597.00
2023-07-24T10:27:47.374Z,97583.00
2023-07-24T10:30:33.698Z,97589.00
2023-07-24T10:33:22.404Z,97587.00
2023-07-24T10:35:54.082Z,97584.00
2023-07-24T10:38:20.864Z,97577.00
2023-07-24T10:40:54.124Z,97583.00
2023-07-24T10:43:21.955Z,97583.00
2023-07-24T10:45:53.879Z,97584.00
2023-07-24T10:48:22.873Z,97599.00
2023-07-24T10:50:53.985Z,97589.00
2023-07-24T10:53:23.248Z,97589.00
2023-07-24T10:55:52.077Z,97589.00
2023-07-24T10:58:26.327Z,97594.00
2023-07-24T11:00:52.964Z,97599.00
2023-07-24T11:03:20.320Z,97597.00
2023-07-24T11:05:48.370Z,97599.00
2023-07-24T11:08:17.551Z,97593.00
2023-07-24T11:10:48.803Z,97575.00
2023-07-24T11:13:20.172Z,97575.00
2023-07-24T11:15:47.364Z,97568.00
2023-07-24T11:18:14.292Z,97567.00
2023-07-24T11:20:47.051Z,97551.00
2023-07-24T11:23:14.365Z,97540.00
2023-07-24T11:25:43.793Z,97547.00
2023-07-24T11:28:13.378Z,97560.00
2023-07-24T11:30:40.802Z,97533.00
2023-07-24T11:33:11.582Z,97529.00
2023-07-24T11:35:43.542Z,97531.00
2023-07-24T11:38:11.012Z,97532.00
2023-07-24T11:40:42.601Z,97531.00
2023-07-24T11:43:19.709Z,97533.00
2023-07-24T11:45:49.778Z,97511.00
2023-07-24T11:48:16.894Z,97516.00
2023-07-24T11:50:45.592Z,97501.00
2023-07-24T11:53:29.554Z,97502.00
2023-07-24T11:55:58.961Z,97497.00
2023-07-24T11:58:30.499Z,97501.00
2023-07-24T12:00:57.835Z,97512.00
2023-07-24T12:03:29.924Z,97495.00
2023-07-24T12:05:56.980Z,97482.00
2023-07-24T12:08:34.934Z,97466.00
2023-07-24T12:11:02.184Z,97476.00
2023-07-24T12:13:29.651Z,97471.00
2023-07-24T12:15:56.992Z,97464.00
2023-07-24T12:18:23.591Z,97472.00
2023-07-24T12:20:50.234Z,97461.00
2023-07-24T12:23:18.153Z,97471.00
2023-07-24T12:25:44.822Z,97479.00
2023-07-24T12:28:11.399Z,97482.00
2023-07-24T12:30:37.950Z,97484.00
2023-07-24T12:33:04.573Z,97494.00
2023-07-24T12:35:31.137Z,97500.00
2023-07-24T12:37:57.735Z,97495.00
2023-07-24T12:40:24.482Z,97509.00
2023-07-24T12:42:51.037Z,97519.00
2023-07-24T12:45:17.614Z,97527.00
2023-07-24T12:47:44.203Z,97533.00
2023-07-24T12:50:10.959Z,97532.00
2023-07-24T12:52:37.807Z,97516.00
2023-07-24T12:55:05.406Z,97514.00
2023-07-24T12:57:31.951Z,97515.00
2023-07-24T12:59:58.515Z,97520.00
2023-07-24T13:02:25.244Z,97515.00
2023-07-24T13:04:51.835Z,97500.00
2023-07-24T13:07:18.462Z,97505.00
2023-07-24T13:09:45.306Z,97483.00
2023-07-24T13:12:11.964Z,97480.00
2023-07-24T13:14:40.253Z,97474.00
2023-07-24T13:17:08.987Z,97465.00
2023-07-24T13:19:35.638Z,97468.00
2023-07-24T13:22:02.146Z,97460.00
2023-07-24T13:24:28.887Z,97463.00
2023-07-24T13:26:55.596Z,97465.00
2023-07-24T13:29:25.892Z,97469.00
2023-07-24T13:31:53.368Z,97461.00
2023-07-24T13:34:20.897Z,97472.00
2023-07-24T13:36:50.505Z,97475.00
2023-07-24T13:39:18.095Z,97468.00
2023-07-24T13:41:44.732Z,97486.00
2023-07-24T13:44:11.455Z,97468.00
2023-07-24T13:46:40.325Z,97457.00
2023-07-24T13:49:07.784Z,97450.00
2023-07-24T13:51:34.472Z,97440.00
2023-07-24T13:54:02.610Z,97441.00
2023-07-24T13:56:32.278Z,97433.00
2023-07-24T13:58:59.096Z,97426.00
2023-07-24T14:01:25.807Z,97416.00
2023-07-24T14:03:52.481Z,97419.00
2023-07-24T14:06:19.197Z,97433.00
2023-07-24T14:08:45.877Z,97433.00
2023-07-24T14:11:12.607Z,97425.00
2023-07-24T14:13:39.190Z,97424.00
2023-07-24T14:16:05.869Z,97420.00
2023-07-24T14:18:32.582Z,97421.00
2023-07-24T14:21:00.541Z,97414.00
2023-07-24T14:23:27.189Z,97417.00
2023-07-24T14:25:53.772Z,97419.00
2023-07-24T14:28:20.290Z,97424.00
2023-07-24T14:30:46.832Z,97422.00
2023-07-24T14:33:13.385Z,97429.00
2023-07-24T14:35:40.070Z,97425.00
2023-07-24T14:38:06.741Z,97440.00
2023-07-24T14:40:33.338Z,97444.00
2023-07-24T14:42:59.909Z,97434.00
2023-07-24T14:45:26.819Z,97441.00
2023-07-24T14:47:53.478Z,97438.00
2023-07-24T14:50:20.056Z,97435.00
2023-07-24T14:52:46.722Z,97431.00
2023-07-24T14:55:13.340Z,97444.00
2023-07-24T14:57:40.745Z,97438.00
2023-07-24T15:00:08.147Z,97436.00
2023-07-24T15:02:34.755Z,97441.00
2023-07-24T15:05:01.393Z,97422.00
2023-07-24T15:07:28.720Z,97426.00
2023-07-24T15:09:55.594Z,97424.00
2023-07-24T15:12:22.428Z,97438.00
2023-07-24T15:14:48.948Z,97446.00
2023-07-24T15:17:15.953Z,97443.00
2023-07-24T15:19:42.553Z,97430.00
2023-07-24T15:22:09.125Z,97434.00
2023-07-24T15:24:35.789Z,97436.00
2023-07-24T15:27:09.045Z,97446.00
2023-07-24T15:29:39.070Z,97437.00
2023-07-24T15:32:06.620Z,97441.00
2023-07-24T15:34:33.952Z,97447.00
2023-07-24T15:37:01.106Z,97440.00
2023-07-24T15:39:27.634Z,97459.00
2023-07-24T15:41:54.149Z,97459.00
2023-07-24T15:44:21.233Z,97446.00
2023-07-24T15:46:48.232Z,97447.00
2023-07-24T15:49:15.429Z,97456.00
2023-07-24T15:51:41.981Z,97462.00
2023-07-24T15:54:11.104Z,97446.00
2023-07-24T15:56:41.984Z,97449.00
2023-07-24T15:59:10.527Z,97457.00
2023-07-24T16:01:37.113Z,97443.00
2023-07-24T16:04:03.759Z,97462.00
2023-07-24T16:06:30.408Z,97453.00
2023-07-24T16:08:56.965Z,97457.00
2023-07-24T16:11:23.493Z,97455.00
2023-07-24T16:13:50.003Z,97456.00
2023-07-24T16:16:16.544Z,97456.00
2023-07-24T16:18:43.154Z,97457.00
2023-07-24T16:21:09.825Z,97466.00
2023-07-24T16:23:36.400Z,97459.00
2023-07-24T16:26:03.108Z,97479.00
2023-07-24T16:28:29.618Z,97472.00
2023-07-24T16:30:58.557Z,97476.00
2023-07-24T16:33:25.605Z,97473.00
2023-07-24T16:35:52.504Z,97456.00
2023-07-24T16:38:19.310Z,97459.00
2023-07-24T16:40:45.952Z,97468.00
2023-07-24T16:43:12.698Z,97473.00
2023-07-24T16:45:39.346Z,97463.00
2023-07-24T16:48:06.674Z,97458.00
2023-07-24T16:50:35.037Z,97478.00
2023-07-24T16:53:01.649Z,97479.00
2023-07-24T16:55:30.248Z,97488.00
2023-07-24T16:57:57.288Z,97487.00
2023-07-24T17:00:23.936Z,97473.00
2023-07-24T17:02:50.552Z,97489.00
2023-07-24T17:05:17.316Z,97498.00
2023-07-24T17:07:43.835Z,97501.00
2023-07-24T17:10:10.887Z,97505.00
2023-07-24T17:12:37.446Z,97497.00
2023-07-24T17:15:04.285Z,97519.00
2023-07-24T17:17:30.866Z,97526.00
2023-07-24T17:19:57.506Z,97527.00
2023-07-24T17:22:24.274Z,97532.00
2023-07-24T17:24:51.508Z,97541.00
2023-07-24T17:27:18.065Z,97551.00
2023-07-24T17:29:44.658Z,97542.00
2023-07-24T17:32:12.935Z,97548.00
2023-07-24T17:34:40.018Z,97553.00
2023-07-24T17:37:06.574Z,97550.00
2023-07-24T17:39:33.092Z,97546.00
2023-07-24T17:41:59.760Z,97542.00
2023-07-24T17:44:26.322Z,97538.00
2023-07-24T17:46:52.928Z,97550.00
2023-07-24T17:49:19.511Z,97546.00
2023-07-24T17:51:46.013Z,97549.00
2023-07-24T17:54:12.639Z,97557.00
2023-07-24T17:56:39.123Z,97548.00
2023-07-24T17:59:05.658Z,97548.00
2023-07-24T18:01:32.550Z,97555.00
2023-07-24T18:03:59.393Z,97553.00
2023-07-24T18:06:25.945Z,97538.00
2023-07-24T18:08:52.489Z,97537.00
2023-07-24T18:11:19.073Z,97549.00
2023-07-24T18:13:45.631Z,97547.00
2023-07-24T18:16:12.222Z,97560.00
2023-07-24T18:18:38.881Z,97556.00
2023-07-24T18:21:08.884Z,97562.00
2023-07-24T18:23:36.058Z,97565.00
2023-07-24T18:26:02.825Z,97574.00
2023-07-24T18:28:29.468Z,97579.00
2023-07-24T18:30:55.982Z,97583.00
2023-07-24T18:33:22.589Z,97579.00
2023-07-24T18:35:50.235Z,97574.00
2023-07-24T18:38:18.501Z,97585.00
2023-07-24T18:40:45.020Z,97582.00
2023-07-24T18:43:11.584Z,97573.00
2023-07-24T18:45:38.133Z,97577.00
2023-07-24T18:48:04.974Z,97577.00
2023-07-24T18:50:31.676Z,97589.00
2023-07-24T18:52:58.211Z,97587.00
2023-07-24T18:55:24.960Z,97582.00
2023-07-24T18:57:51.556Z,97586.00
2023-07-24T19:00:18.752Z,97593.00
2023-07-24T19:02:45.724Z,97592.00
2023-07-24T19:05:12.779Z,97591.00
2023-07-24T19:07:39.490Z,97595.00
2023-07-24T19:10:10.301Z,97601.00
2023-07-24T19:12:39.089Z,97601.00
2023-07-24T19:15:07.448Z,97608.00
2023-07-24T19:17:34.006Z,97618.00
2023-07-24T19:20:01.047Z,97614.00
2023-07-24T19:22:27.605Z,97616.00
2023-07-24T19:24:55.202Z,97614.00
2023-07-24T19:27:22.717Z,97613.00
2023-07-24T19:29:49.309Z,97622.00
2023-07-24T19:32:15.935Z,97621.00
2023-07-24T19:34:44.897Z,97620.00
2023-07-24T19:37:12.028Z,97621.00
2023-07-24T19:39:41.862Z,97619.00
2023-07-24T19:42:12.399Z,97622.00
2023-07-24T19:44:39.045Z,97622.00
2023-07-24T19:47:05.860Z,97621.00
2023-07-24T19:49:35.863Z,97620.00
2023-07-24T19:52:03.213Z,97622.00
2023-07-24T19:54:30.249Z,97625.00
2023-07-24T19:56:57.140Z,97613.00
2023-07-24T19:59:24.020Z,97609.00
2023-07-24T20:01:50.541Z,97606.00
2023-07-24T20:04:17.161Z,97606.00
2023-07-24T20:06:43.752Z,97608.00
2023-07-24T20:09:10.267Z,97614.00
2023-07-24T20:11:37.004Z,97612.00
2023-07-24T20:14:03.672Z,97617.00
2023-07-24T20:16:30.277Z,97615.00
2023-07-24T20:18:56.820Z,97622.00
2023-07-24T20:21:23.337Z,97622.00
2023-07-24T20:23:50.182Z,97617.00
2023-07-24T20:26:17.014Z,97618.00
2023-07-24T20:28:44.250Z,97625.00
2023-07-24T20:31:11.778Z,97619.00
2023-07-24T20:33:38.868Z,97626.00
2023-07-24T20:36:09.605Z,97629.00
2023-07-24T20:38:38.102Z,97621.00
2023-07-24T20:41:05.620Z,97617.00
2023-07-24T20:43:32.326Z,97612.00
2023-07-24T20:46:09.956Z,97618.00
2023-07-24T20:48:36.555Z,97621.00
2023-07-24T20:51:03.058Z,97621.00
2023-07-24T20:53:31.037Z,97621.00
2023-07-24T20:55:59.248Z,97629.00
2023-07-24T20:58:25.812Z,97632.00
2023-07-24T21:00:52.479Z,97632.00
2023-07-24T21:03:18.995Z,97635.00
2023-07-24T21:05:45.538Z,97628.00
2023-07-24T21:08:12.101Z,97628.00
2023-07-24T21:10:38.604Z,97630.00
2023-07-24T21:13:05.081Z,97632.00
2023-07-24T21:15:31.649Z,97630.00
2023-07-24T21:17:58.290Z,97632.00
2023-07-24T21:20:24.856Z,97634.00
2023-07-24T21:22:51.426Z,97630.00
2023-07-24T21:25:19.380Z,97623.00
2023-07-24T21:27:45.992Z,97623.00
2023-07-24T21:30:13.134Z,97607.00
2023-07-24T21:32:39.991Z,97608.00
2023-07-24T21:35:06.863Z,97613.00
2023-07-24T21:37:33.394Z,97612.00
2023-07-24T21:39:59.902Z,97619.00
2023-07-24T21:42:26.754Z,97616.00
2023-07-24T21:44:53.308Z,97626.00
2023-07-24T21:47:19.814Z,97612.00
2023-07-24T21:49:46.376Z,97618.00
2023-07-24T21:52:12.979Z,97606.00
2023-07-24T21:54:39.494Z,97610.00
2023-07-24T21:57:08.117Z,97603.00
2023-07-24T21:59:35.132Z,97604.00
2023-07-24T22:02:01.804Z,97604.00
2023-07-24T22:04:28.465Z,97603.00
2023-07-24T22:06:55.750Z,97609.00
2023-07-24T22:09:22.301Z,97608.00
2023-07-24T22:11:48.965Z,97607.00
2023-07-24T22:14:16.506Z,97615.00
2023-07-24T22:16:43.078Z,97611.00
2023-07-24T22:19:09.657Z,97623.00
2023-07-24T22:21:37.186Z,97614.00
2023-07-24T22:24:03.938Z,97610.00
2023-07-24T22:26:31.156Z,97613.00
2023-07-24T22:28:57.796Z,97604.00
2023-07-24T22:31:24.323Z,97598.00
2023-07-24T22:33:50.859Z,97608.00
2023-07-24T22:36:17.587Z,97604.00
2023-07-24T22:38:44.179Z,97603.00
2023-07-24T22:41:14.770Z,97604.00
2023-07-24T22:43:41.360Z,97602.00
2023-07-24T22:46:08.050Z,97603.00
2023-07-24T22:48:34.676Z,97604.00
2023-07-24T22:51:01.382Z,97604.00
2023-07-24T22:53:27.974Z,97599.00
2023-07-24T22:55:54.608Z,97595.00
2023-07-24T22:58:21.164Z,97597.00
2023-07-24T23:00:47.896Z,97591.00
2023-07-24T23:03:14.639Z,97591.00
2023-07-24T23:05:41.248Z,97599.00
2023-07-24T23:08:07.844Z,97594.00
2023-07-24T23:10:34.363Z,97592.00
2023-07-24T23:13:00.875Z,97594.00
2023-07-24T23:15:27.402Z,97594.00
2023-07-24T23:17:53.914Z,97596.00
2023-07-24T23:20:20.475Z,97581.00
2023-07-24T23:22:47.357Z,97584.00
2023-07-24T23:25:13.873Z,97576.00
2023-07-24T23:27:40.397Z,97579.00
2023-07-24T23:30:07.538Z,97578.00
2023-07-24T23:32:34.326Z,97571.00
2023-07-24T23:35:00.859Z,97578.00
2023-07-24T23:37:27.427Z,97572.00
2023-07-24T23:39:53.986Z,97576.00
2023-07-24T23:42:20.576Z,97576.00
2023-07-24T23:44:47.110Z,97582.00
2023-07-24T23:47:13.642Z,97586.00
2023-07-24T23:49:40.155Z,97588.00
2023-07-24T23:52:07.233Z,97572.00
2023-07-24T23:54:33.809Z,97566.00
2023-07-24T23:57:00.383Z,97566.00
2023-07-24T23:59:27.071Z,97555.00
